createdAt,value
2023-02-23T00:02:21.418Z,-0.20
2023-02-23T00:04:49.742Z,-0.18
2023-02-23T00:07:20.383Z,-0.21
2023-02-23T00:09:48.839Z,-0.26
2023-02-23T00:12:17.389Z,-0.26
2023-02-23T00:14:46.348Z,-0.28
2023-02-23T00:17:17.743Z,-0.33
2023-02-23T00:19:47.986Z,-0.35
2023-02-23T00:22:16.570Z,-0.37
2023-02-23T00:24:47.357Z,-0.38
2023-02-23T00:27:20.946Z,-0.36
2023-02-23T00:29:49.870Z,-0.30
2023-02-23T00:32:22.210Z,-0.27
2023-02-23T00:34:52.566Z,-0.30
2023-02-23T00:37:23.181Z,-0.34
2023-02-23T00:39:53.046Z,-0.35
2023-02-23T00:42:21.316Z,-0.35
2023-02-23T00:44:50.374Z,-0.36
2023-02-23T00:47:18.806Z,-0.40
2023-02-23T00:49:47.238Z,-0.47
2023-02-23T00:52:15.381Z,-0.51
2023-02-23T00:54:43.694Z,-0.51
2023-02-23T00:57:11.977Z,-0.48
2023-02-23T00:59:40.298Z,-0.46
2023-02-23T01:02:08.762Z,-0.45
2023-02-23T01:04:37.077Z,-0.40
2023-02-23T01:07:06.707Z,-0.36
2023-02-23T01:09:35.384Z,-0.36
2023-02-23T01:12:07.785Z,-0.41
2023-02-23T01:14:38.139Z,-0.45
2023-02-23T01:17:07.724Z,-0.49
2023-02-23T01:19:38.175Z,-0.53
2023-02-23T01:22:06.784Z,-0.55
2023-02-23T01:24:35.055Z,-0.58
2023-02-23T01:27:05.879Z,-0.57
2023-02-23T01:29:35.438Z,-0.53
2023-02-23T01:32:04.971Z,-0.53
2023-02-23T01:34:33.603Z,-0.52
2023-02-23T01:37:03.348Z,-0.48
2023-02-23T01:39:33.218Z,-0.44
2023-02-23T01:42:01.682Z,-0.45
2023-02-23T01:44:31.266Z,-0.45
2023-02-23T01:46:59.489Z,-0.46
2023-02-23T01:49:31.091Z,-0.49
2023-02-23T01:52:03.664Z,-0.53
2023-02-23T01:54:39.178Z,-0.59
2023-02-23T01:57:13.161Z,-0.61
2023-02-23T01:59:46.984Z,-0.61
2023-02-23T02:02:21.558Z,-0.56
2023-02-23T02:04:52.530Z,-0.50
2023-02-23T02:07:27.177Z,-0.52
2023-02-23T02:10:13.365Z,-0.56
2023-02-23T02:12:47.398Z,-0.60
2023-02-23T02:15:18.499Z,-0.64
2023-02-23T02:18:23.489Z,-0.70
2023-02-23T02:21:35.365Z,-0.79
2023-02-23T02:24:34.355Z,-0.83
2023-02-23T02:27:26.932Z,-0.82
2023-02-23T02:30:27.611Z,-0.82
2023-02-23T02:33:08.438Z,-0.81
2023-02-23T02:36:01.633Z,-0.79
2023-02-23T02:38:30.601Z,-0.77
2023-02-23T02:41:09.165Z,-0.80
2023-02-23T02:44:02.496Z,-0.83
2023-02-23T02:46:40.995Z,-0.83
2023-02-23T02:49:22.399Z,-0.88
2023-02-23T02:52:05.849Z,-0.96
2023-02-23T02:54:44.086Z,-1.07
2023-02-23T02:57:13.930Z,-1.17
2023-02-23T03:00:03.439Z,-1.27
2023-02-23T03:02:53.808Z,-1.33
2023-02-23T03:05:44.360Z,-1.36
2023-02-23T03:08:45.824Z,-1.34
2023-02-23T03:11:35.228Z,-1.31
2023-02-23T03:14:37.168Z,-1.36
2023-02-23T03:17:33.485Z,-1.39
2023-02-23T03:20:26.415Z,-1.45
2023-02-23T03:23:39.716Z,-1.52
2023-02-23T03:26:35.845Z,-1.60
2023-02-23T03:29:38.018Z,-1.69
2023-02-23T03:32:37.332Z,-1.78
2023-02-23T03:35:33.008Z,-1.86
2023-02-23T03:38:29.805Z,-1.94
2023-02-23T03:41:18.764Z,-1.96
2023-02-23T03:44:12.504Z,-1.94
2023-02-23T03:47:00.507Z,-1.95
2023-02-23T03:49:52.832Z,-1.94
2023-02-23T03:52:51.038Z,-1.96
2023-02-23T03:55:42.449Z,-1.97
2023-02-23T03:58:33.315Z,-2.00
2023-02-23T04:01:23.076Z,-2.05
2023-02-23T04:04:12.420Z,-2.08
2023-02-23T04:07:03.960Z,-2.12
2023-02-23T04:09:51.230Z,-2.18
2023-02-23T04:12:54.290Z,-2.18
2023-02-23T04:15:33.009Z,-2.14
2023-02-23T04:18:04.633Z,-2.09
2023-02-23T04:20:33.033Z,-2.07
2023-02-23T04:23:01.398Z,-2.04
2023-02-23T04:25:30.519Z,-2.02
2023-02-23T04:27:58.859Z,-2.00
2023-02-23T04:30:28.683Z,-1.98
2023-02-23T04:32:59.225Z,-2.00
2023-02-23T04:35:29.999Z,-2.03
2023-02-23T04:37:59.102Z,-2.04
2023-02-23T04:40:28.534Z,-2.07
2023-02-23T04:42:56.791Z,-2.08
2023-02-23T04:45:25.955Z,-2.09
2023-02-23T04:47:54.412Z,-2.06
2023-02-23T04:50:22.645Z,-2.02
2023-02-23T04:52:51.462Z,-1.94
2023-02-23T04:55:22.080Z,-1.89
2023-02-23T04:57:50.783Z,-1.86
2023-02-23T05:00:19.639Z,-1.82
2023-02-23T05:02:49.619Z,-1.81
2023-02-23T05:05:19.020Z,-1.81
2023-02-23T05:07:47.588Z,-1.80
2023-02-23T05:10:15.832Z,-1.60
2023-02-23T05:12:44.101Z,-1.33
2023-02-23T05:15:12.321Z,-1.02
2023-02-23T05:17:42.203Z,-0.76
2023-02-23T05:20:11.978Z,-0.57
2023-02-23T05:22:41.074Z,-0.42
2023-02-23T05:25:10.443Z,-0.26
2023-02-23T05:27:39.255Z,-0.07
2023-02-23T05:30:10.057Z,-0.05
2023-02-23T05:32:38.435Z,-0.15
2023-02-23T05:35:07.745Z,-0.21
2023-02-23T05:37:36.035Z,-0.27
2023-02-23T05:40:05.277Z,-0.36
2023-02-23T05:42:33.613Z,-0.43
2023-02-23T05:45:01.819Z,-0.49
2023-02-23T05:47:31.385Z,-0.54
2023-02-23T05:49:59.736Z,-0.57
2023-02-23T05:52:27.968Z,-0.57
2023-02-23T05:54:56.894Z,-0.54
2023-02-23T05:57:25.127Z,-0.48
2023-02-23T05:59:53.330Z,-0.39
2023-02-23T06:02:21.525Z,-0.29
2023-02-23T06:04:49.884Z,-0.21
2023-02-23T06:07:18.145Z,-0.14
2023-02-23T06:09:46.334Z,-0.08
2023-02-23T06:12:14.588Z,-0.03
2023-02-23T06:14:42.842Z,0.01
2023-02-23T06:17:11.131Z,0.07
2023-02-23T06:19:39.411Z,0.11
2023-02-23T06:22:07.614Z,0.17
2023-02-23T06:24:35.829Z,0.21
2023-02-23T06:27:04.400Z,0.24
2023-02-23T06:29:32.573Z,0.28
2023-02-23T06:32:01.294Z,0.34
2023-02-23T06:34:30.003Z,0.39
2023-02-23T06:37:00.063Z,0.44
2023-02-23T06:39:28.342Z,0.51
2023-02-23T06:41:56.510Z,0.61
2023-02-23T06:44:24.832Z,0.74
2023-02-23T06:46:53.812Z,0.87
2023-02-23T06:49:22.122Z,1.00
2023-02-23T06:51:50.330Z,1.12
2023-02-23T06:54:19.046Z,1.28
2023-02-23T06:56:47.253Z,1.37
2023-02-23T06:59:15.725Z,1.43
2023-02-23T07:01:44.841Z,1.50
2023-02-23T07:04:15.567Z,1.58
2023-02-23T07:06:45.054Z,1.67
2023-02-23T07:09:13.669Z,1.78
2023-02-23T07:11:44.876Z,1.87
2023-02-23T07:14:21.433Z,1.96
2023-02-23T07:16:54.577Z,2.05
2023-02-23T07:19:23.671Z,2.16
2023-02-23T07:21:51.948Z,2.26
2023-02-23T07:24:20.293Z,2.32
2023-02-23T07:26:49.555Z,2.39
2023-02-23T07:29:17.905Z,2.46
2023-02-23T07:31:46.436Z,2.48
2023-02-23T07:34:14.642Z,2.50
2023-02-23T07:36:42.887Z,2.53
2023-02-23T07:39:11.189Z,2.62
2023-02-23T07:41:39.858Z,2.69
2023-02-23T07:44:14.852Z,2.75
2023-02-23T07:46:43.191Z,2.79
2023-02-23T07:49:11.420Z,2.81
2023-02-23T07:51:40.768Z,2.91
2023-02-23T07:54:08.990Z,3.00
2023-02-23T07:56:37.272Z,3.18
2023-02-23T07:59:05.535Z,3.42
2023-02-23T08:01:34.108Z,3.86
2023-02-23T08:04:02.421Z,4.06
2023-02-23T08:06:30.605Z,4.25
2023-02-23T08:09:01.222Z,4.37
2023-02-23T08:11:29.392Z,4.59
2023-02-23T08:14:00.485Z,4.94
2023-02-23T08:16:33.210Z,5.25
2023-02-23T08:19:02.304Z,5.69
2023-02-23T08:21:30.722Z,6.10
2023-02-23T08:23:59.038Z,6.40
2023-02-23T08:26:27.461Z,6.68
2023-02-23T08:28:56.101Z,6.73
2023-02-23T08:31:25.477Z,6.64
2023-02-23T08:33:53.936Z,6.87
2023-02-23T08:36:22.527Z,7.37
2023-02-23T08:38:51.209Z,7.78
2023-02-23T08:41:19.814Z,8.11
2023-02-23T08:43:49.030Z,8.26
2023-02-23T08:46:20.345Z,8.43
2023-02-23T08:48:48.553Z,8.85
2023-02-23T08:51:17.116Z,9.31
2023-02-23T08:53:45.370Z,9.55
2023-02-23T08:56:15.484Z,9.33
2023-02-23T08:58:44.173Z,9.61
2023-02-23T09:01:22.081Z,9.59
2023-02-23T09:03:50.768Z,9.91
2023-02-23T09:06:22.253Z,10.04
2023-02-23T09:08:50.473Z,10.40
2023-02-23T09:11:18.901Z,11.11
2023-02-23T09:13:47.609Z,11.46
2023-02-23T09:16:16.477Z,11.78
2023-02-23T09:18:45.333Z,12.50
2023-02-23T09:21:21.456Z,12.54
2023-02-23T09:23:52.140Z,12.86
2023-02-23T09:26:21.119Z,13.10
2023-02-23T09:28:50.962Z,13.31
2023-02-23T09:31:23.093Z,13.53
2023-02-23T09:33:52.791Z,13.95
2023-02-23T09:36:24.210Z,14.17
2023-02-23T09:38:56.594Z,14.00
2023-02-23T09:42:02.472Z,14.40
2023-02-23T09:44:49.191Z,14.83
2023-02-23T09:47:19.071Z,15.09
2023-02-23T09:49:50.203Z,15.51
2023-02-23T09:52:24.040Z,15.64
2023-02-23T09:54:52.438Z,15.65
2023-02-23T09:57:30.722Z,15.54
2023-02-23T09:59:58.904Z,15.67
2023-02-23T10:02:36.656Z,15.84
2023-02-23T10:05:10.023Z,15.95
2023-02-23T10:07:50.900Z,16.02
2023-02-23T10:10:28.278Z,16.49
2023-02-23T10:13:14.912Z,16.31
2023-02-23T10:16:07.346Z,15.84
2023-02-23T10:18:47.404Z,16.09
2023-02-23T10:21:25.012Z,16.06
2023-02-23T10:24:23.039Z,16.01
2023-02-23T10:26:54.506Z,16.16
2023-02-23T10:29:28.214Z,15.95
2023-02-23T10:32:01.501Z,15.59
2023-02-23T10:34:31.134Z,15.84
2023-02-23T10:37:03.402Z,15.47
2023-02-23T10:39:33.118Z,15.24
2023-02-23T10:42:06.107Z,15.31
2023-02-23T10:44:34.646Z,15.11
2023-02-23T10:47:09.633Z,15.28
2023-02-23T10:49:45.506Z,15.34
2023-02-23T10:52:17.606Z,14.78
2023-02-23T10:54:50.861Z,14.88
2023-02-23T10:57:31.335Z,14.50
2023-02-23T11:00:09.501Z,14.49
2023-02-23T11:02:37.986Z,14.12
2023-02-23T11:05:07.259Z,13.73
2023-02-23T11:07:35.557Z,14.18
2023-02-23T11:10:35.889Z,14.24
2023-02-23T11:13:04.114Z,14.13
2023-02-23T11:15:50.334Z,13.62
2023-02-23T11:18:25.199Z,12.83
2023-02-23T11:20:54.880Z,12.69
2023-02-23T11:23:23.149Z,12.63
2023-02-23T11:26:00.339Z,12.20
2023-02-23T11:28:40.850Z,11.87
2023-02-23T11:31:22.591Z,11.57
2023-02-23T11:33:54.992Z,11.64
2023-02-23T11:36:23.065Z,11.18
2023-02-23T11:39:20.388Z,10.89
2023-02-23T11:42:15.253Z,10.15
2023-02-23T11:44:44.992Z,9.93
2023-02-23T11:47:19.356Z,9.77
2023-02-23T11:49:49.753Z,9.66
2023-02-23T11:52:21.748Z,9.18
2023-02-23T11:54:52.076Z,8.78
2023-02-23T11:57:26.801Z,8.45
2023-02-23T11:59:58.116Z,8.40
2023-02-23T12:02:29.407Z,8.22
2023-02-23T12:05:24.401Z,8.06
2023-02-23T12:08:17.585Z,7.79
2023-02-23T12:10:54.889Z,7.75
2023-02-23T12:13:39.215Z,7.62
2023-02-23T12:16:28.845Z,7.49
2023-02-23T12:18:57.085Z,7.33
2023-02-23T12:21:47.770Z,7.23
2023-02-23T12:24:25.129Z,6.97
2023-02-23T12:27:13.015Z,6.94
2023-02-23T12:29:51.299Z,6.81
2023-02-23T12:32:25.527Z,6.74
2023-02-23T12:35:12.841Z,6.71
2023-02-23T12:38:31.045Z,6.68
2023-02-23T12:41:07.415Z,6.61
2023-02-23T12:43:53.155Z,6.62
2023-02-23T12:46:28.675Z,6.64
2023-02-23T12:49:17.208Z,6.66
2023-02-23T12:51:53.300Z,6.64
2023-02-23T12:54:21.659Z,6.66
2023-02-23T12:56:56.417Z,6.69
2023-02-23T13:00:20.411Z,6.71
2023-02-23T13:02:58.340Z,6.75
2023-02-23T13:05:41.527Z,6.76
2023-02-23T13:08:32.318Z,6.68
2023-02-23T13:11:16.128Z,6.58
2023-02-23T13:14:14.282Z,6.56
2023-02-23T13:16:50.819Z,6.47
2023-02-23T13:19:28.212Z,6.34
2023-02-23T13:22:15.444Z,6.23
2023-02-23T13:24:47.793Z,6.14
2023-02-23T13:27:37.864Z,6.15
2023-02-23T13:30:10.911Z,6.08
2023-02-23T13:32:39.860Z,6.04
2023-02-23T13:35:19.236Z,6.02
2023-02-23T13:37:59.782Z,5.98
2023-02-23T13:40:58.845Z,5.89
2023-02-23T13:43:47.549Z,5.83
2023-02-23T13:46:40.749Z,5.78
2023-02-23T13:49:29.028Z,5.71
2023-02-23T13:52:33.344Z,5.73
2023-02-23T13:55:05.627Z,5.71
2023-02-23T13:57:35.626Z,5.71
2023-02-23T14:00:04.546Z,5.68
2023-02-23T14:02:41.583Z,5.67
2023-02-23T14:05:25.148Z,5.64
2023-02-23T14:08:03.604Z,5.60
2023-02-23T14:10:43.545Z,5.52
2023-02-23T14:13:14.795Z,5.48
2023-02-23T14:15:44.917Z,5.42
2023-02-23T14:18:19.429Z,5.33
2023-02-23T14:21:05.478Z,5.30
2023-02-23T14:23:37.288Z,5.28
2023-02-23T14:26:28.590Z,5.25
2023-02-23T14:29:32.121Z,5.19
2023-02-23T14:32:12.830Z,5.20
2023-02-23T14:34:46.152Z,5.20
2023-02-23T14:37:22.057Z,5.23
2023-02-23T14:39:52.060Z,5.24
2023-02-23T14:42:25.070Z,5.25
2023-02-23T14:44:55.556Z,5.10
2023-02-23T14:47:27.023Z,5.02
2023-02-23T14:49:58.783Z,4.95
2023-02-23T14:52:35.377Z,4.88
2023-02-23T14:55:12.910Z,4.78
2023-02-23T14:57:43.290Z,4.68
2023-02-23T15:00:27.901Z,4.57
2023-02-23T15:02:59.341Z,4.49
2023-02-23T15:05:34.641Z,4.43
2023-02-23T15:08:08.097Z,4.27
2023-02-23T15:10:43.470Z,4.21
2023-02-23T15:13:32.998Z,4.08
2023-02-23T15:16:06.804Z,3.97
2023-02-23T15:18:41.733Z,3.90
2023-02-23T15:21:20.116Z,3.81
2023-02-23T15:23:52.100Z,3.65
2023-02-23T15:26:33.954Z,3.50
2023-02-23T15:29:13.704Z,3.40
2023-02-23T15:31:51.252Z,3.33
2023-02-23T15:34:27.088Z,3.23
2023-02-23T15:36:59.955Z,3.15
2023-02-23T15:39:35.648Z,3.04
2023-02-23T15:42:05.902Z,2.94
2023-02-23T15:44:44.101Z,2.87
2023-02-23T15:47:21.968Z,2.83
2023-02-23T15:49:50.496Z,2.80
2023-02-23T15:52:25.095Z,2.79
2023-02-23T15:55:01.690Z,2.72
2023-02-23T15:57:43.921Z,2.59
2023-02-23T16:00:32.704Z,2.49
2023-02-23T16:03:03.763Z,2.41
2023-02-23T16:05:46.578Z,2.30
2023-02-23T16:08:26.314Z,2.18
2023-02-23T16:11:04.248Z,2.07
2023-02-23T16:13:32.901Z,1.96
2023-02-23T16:16:01.265Z,1.87
2023-02-23T16:18:40.045Z,1.76
2023-02-23T16:21:17.321Z,1.67
2023-02-23T16:23:52.659Z,1.57
2023-02-23T16:26:29.055Z,1.49
2023-02-23T16:29:02.490Z,1.40
2023-02-23T16:31:49.476Z,1.33
2023-02-23T16:34:35.784Z,1.31
2023-02-23T16:37:15.870Z,1.31
2023-02-23T16:39:44.908Z,1.32
2023-02-23T16:42:32.297Z,1.34
2023-02-23T16:45:01.563Z,1.30
2023-02-23T16:47:40.988Z,1.28
2023-02-23T16:50:24.551Z,1.25
2023-02-23T16:52:55.239Z,1.19
2023-02-23T16:55:26.423Z,1.12
2023-02-23T16:57:59.021Z,1.03
2023-02-23T17:00:30.577Z,0.94
2023-02-23T17:03:00.871Z,0.86
2023-02-23T17:05:30.369Z,0.78
2023-02-23T17:07:59.323Z,0.69
2023-02-23T17:10:33.581Z,0.59
2023-02-23T17:13:08.030Z,0.49
2023-02-23T17:15:39.192Z,0.39
2023-02-23T17:18:07.523Z,0.30
2023-02-23T17:20:35.762Z,0.28
2023-02-23T17:23:04.159Z,0.26
2023-02-23T17:25:32.804Z,0.27
2023-02-23T17:28:02.062Z,0.28
2023-02-23T17:30:31.229Z,0.28
2023-02-23T17:32:59.761Z,0.26
2023-02-23T17:35:28.703Z,0.25
2023-02-23T17:37:57.048Z,0.23
2023-02-23T17:40:28.735Z,0.18
2023-02-23T17:42:59.507Z,0.13
2023-02-23T17:45:28.800Z,0.08
2023-02-23T17:47:58.446Z,0.02
2023-02-23T17:50:27.458Z,-0.05
2023-02-23T17:52:56.430Z,-0.11
2023-02-23T17:55:25.908Z,-0.17
2023-02-23T17:57:54.146Z,-0.23
2023-02-23T18:00:22.619Z,-0.29
2023-02-23T18:02:50.901Z,-0.31
2023-02-23T18:05:19.517Z,-0.31
2023-02-23T18:07:48.773Z,-0.29
2023-02-23T18:10:19.701Z,-0.26
2023-02-23T18:12:47.918Z,-0.23
2023-02-23T18:15:17.533Z,-0.22
2023-02-23T18:17:45.770Z,-0.20
2023-02-23T18:20:15.377Z,-0.20
2023-02-23T18:22:44.412Z,-0.20
2023-02-23T18:25:33.544Z,-0.26
2023-02-23T18:28:01.830Z,-0.28
2023-02-23T18:30:30.208Z,-0.32
2023-02-23T18:33:00.898Z,-0.37
2023-02-23T18:35:37.568Z,-0.43
2023-02-23T18:38:10.373Z,-0.51
2023-02-23T18:40:40.403Z,-0.53
2023-02-23T18:43:09.162Z,-0.51
2023-02-23T18:45:37.773Z,-0.49
2023-02-23T18:48:12.545Z,-0.47
2023-02-23T18:50:41.470Z,-0.44
2023-02-23T18:53:11.042Z,-0.40
2023-02-23T18:55:41.076Z,-0.35
2023-02-23T18:58:09.303Z,-0.33
2023-02-23T19:00:42.700Z,-0.32
2023-02-23T19:03:15.668Z,-0.34
2023-02-23T19:05:50.196Z,-0.36
2023-02-23T19:08:19.822Z,-0.39
2023-02-23T19:10:49.908Z,-0.44
2023-02-23T19:13:22.214Z,-0.43
2023-02-23T19:15:53.499Z,-0.41
2023-02-23T19:18:22.021Z,-0.38
2023-02-23T19:20:55.307Z,-0.34
2023-02-23T19:23:23.648Z,-0.28
2023-02-23T19:25:51.922Z,-0.24
2023-02-23T19:28:22.402Z,-0.22
2023-02-23T19:30:50.689Z,-0.23
2023-02-23T19:33:18.994Z,-0.22
2023-02-23T19:35:47.338Z,-0.23
2023-02-23T19:38:17.085Z,-0.26
2023-02-23T19:40:46.915Z,-0.29
2023-02-23T19:43:15.298Z,-0.34
2023-02-23T19:45:46.884Z,-0.38
2023-02-23T19:48:16.071Z,-0.40
2023-02-23T19:50:48.560Z,-0.40
2023-02-23T19:53:17.340Z,-0.38
2023-02-23T19:55:45.600Z,-0.36
2023-02-23T19:58:13.879Z,-0.35
2023-02-23T20:00:42.128Z,-0.34
2023-02-23T20:03:10.512Z,-0.36
2023-02-23T20:05:43.121Z,-0.38
2023-02-23T20:08:11.416Z,-0.40
2023-02-23T20:10:41.672Z,-0.43
2023-02-23T20:13:10.876Z,-0.47
2023-02-23T20:15:39.151Z,-0.52
2023-02-23T20:18:07.545Z,-0.57
2023-02-23T20:20:36.851Z,-0.63
2023-02-23T20:23:07.915Z,-0.68
2023-02-23T20:25:36.531Z,-0.72
2023-02-23T20:28:08.175Z,-0.72
2023-02-23T20:30:36.975Z,-0.73
2023-02-23T20:33:10.950Z,-0.71
2023-02-23T20:35:39.950Z,-0.72
2023-02-23T20:38:08.799Z,-0.72
2023-02-23T20:40:37.524Z,-0.73
2023-02-23T20:43:05.890Z,-0.75
2023-02-23T20:45:34.236Z,-0.79
2023-02-23T20:48:04.486Z,-0.85
2023-02-23T20:50:34.080Z,-0.90
2023-02-23T20:53:04.200Z,-0.94
2023-02-23T20:55:33.077Z,-1.00
2023-02-23T20:58:01.393Z,-1.03
2023-02-23T21:00:31.936Z,-1.05
2023-02-23T21:03:02.068Z,-1.03
2023-02-23T21:05:33.462Z,-1.00
2023-02-23T21:08:05.231Z,-0.95
2023-02-23T21:10:38.709Z,-0.90
2023-02-23T21:13:08.379Z,-0.85
2023-02-23T21:15:37.998Z,-0.86
2023-02-23T21:18:06.722Z,-0.90
2023-02-23T21:20:35.625Z,-0.93
2023-02-23T21:23:04.416Z,-0.96
2023-02-23T21:25:33.193Z,-0.97
2023-02-23T21:28:02.159Z,-0.99
2023-02-23T21:30:30.797Z,-1.04
2023-02-23T21:33:00.350Z,-1.04
2023-02-23T21:35:28.821Z,-1.01
2023-02-23T21:37:57.303Z,-0.98
2023-02-23T21:40:25.626Z,-0.93
2023-02-23T21:42:53.860Z,-0.88
2023-02-23T21:45:22.531Z,-0.86
2023-02-23T21:47:50.813Z,-0.84
2023-02-23T21:50:19.970Z,-0.84
2023-02-23T21:52:50.553Z,-0.86
2023-02-23T21:55:21.573Z,-0.89
2023-02-23T21:57:52.000Z,-0.93
2023-02-23T22:00:21.855Z,-1.00
2023-02-23T22:02:51.234Z,-1.05
2023-02-23T22:05:20.435Z,-1.06
2023-02-23T22:07:53.925Z,-1.04
2023-02-23T22:10:23.907Z,-0.99
2023-02-23T22:12:56.946Z,-0.94
2023-02-23T22:15:27.971Z,-0.91
2023-02-23T22:17:56.731Z,-0.88
2023-02-23T22:20:26.243Z,-0.85
2023-02-23T22:22:54.547Z,-0.86
2023-02-23T22:25:22.767Z,-0.90
2023-02-23T22:27:51.053Z,-0.93
2023-02-23T22:30:22.561Z,-0.98
2023-02-23T22:32:51.354Z,-1.01
2023-02-23T22:35:19.825Z,-1.06
2023-02-23T22:37:48.482Z,-1.10
2023-02-23T22:40:17.305Z,-1.13
2023-02-23T22:42:49.671Z,-1.13
2023-02-23T22:45:18.905Z,-1.11
2023-02-23T22:47:47.164Z,-1.06
2023-02-23T22:50:19.328Z,-1.02
2023-02-23T22:52:47.916Z,-0.97
2023-02-23T22:55:16.271Z,-0.91
2023-02-23T22:57:46.182Z,-0.88
2023-02-23T23:00:18.666Z,-0.87
2023-02-23T23:02:46.908Z,-0.91
2023-02-23T23:05:15.688Z,-0.95
2023-02-23T23:07:46.916Z,-0.97
2023-02-23T23:10:17.765Z,-1.02
2023-02-23T23:12:46.548Z,-1.04
2023-02-23T23:15:15.191Z,-1.02
2023-02-23T23:17:50.647Z,-0.99
2023-02-23T23:20:25.693Z,-0.95
2023-02-23T23:22:57.301Z,-0.89
2023-02-23T23:25:26.706Z,-0.84
2023-02-23T23:27:55.955Z,-0.84
2023-02-23T23:30:29.502Z,-0.88
2023-02-23T23:32:58.065Z,-0.91
2023-02-23T23:35:26.481Z,-0.98
2023-02-23T23:37:54.709Z,-1.05
2023-02-23T23:40:24.737Z,-1.09
2023-02-23T23:42:53.357Z,-1.13
2023-02-23T23:45:24.579Z,-1.15
2023-02-23T23:47:52.994Z,-1.15
2023-02-23T23:50:26.765Z,-1.15
2023-02-23T23:52:57.247Z,-1.13
2023-02-23T23:55:31.355Z,-1.08
2023-02-23T23:58:00.642Z,-1.01
